Bitte eine E-Mail-Adresse für das Benutzerkonto eingeben. Ein Bestätigungscode wird dann an diese verschickt. Sobald der Code vorliegt, kann ein neues Passwort für das Benutzerkonto festgelegt werden.

 

 

 
NEU! ab. 1.4.
Nortel Info 128,740 MHz

WebCam

  
Kamera Halle
Kamera Vorfeld
Wetter EDDS

METAR

EDDS 210120Z VRB01KT 9999 FEW034 00/M01 Q1027 =
EDDS 202300Z 2100/2124 VRB02KT 9999 SCT035 PROB30 TEMPO 2104/2109 3000 BCFG BECMG 2110/2112 27006KT


TAF

EDDS 202300Z 2100/2124 VRB02KT 9999 SCT035 PROB30 TEMPO 2104/2109 3000 BCFG BECMG 2110/2112 27006KT =


SR/SS

06:18 / 16:51 UTC
(EDSO 21-02-2019)